ADDS TAF Data INFO
IDs: Format: Raw Decoded Include METARs

Data at: 1630 UTC 18 Jul 2018

KOSH 181553Z 00000KT 10SM FEW027 SCT036 22/15 A3014 RMK AO2 SLP198 T02170150

No TAF found for KOSH

KATW 181545Z VRB03KT 10SM BKN025 22/12 A3014

KATW 181604Z 1816/1912 VRB03KT P6SM SCT025
  TEMPO 1816/1817 BKN025
  FM181700 17006KT P6SM SCT050
  FM190200 16004KT P6SM SKC